AirNav   Pilot Hours Calculator
 
 273 users online  

10NH Clark Heliport
Hampstead, New Hampshire, USA

GOING TO HAMPSTEAD?


FAA INFORMATION EFFECTIVE 10 OCTOBER 2019

Location

FAA Identifier: 10NH
Lat/Long: 42-52-26.7000N 071-10-46.8000W
42-52.445000N 071-10.780000W
42.8740833,-71.1796667
(estimated)
Elevation: 320 ft. / 98 m (estimated)
Time zone: UTC -4 (UTC -5 during Standard Time)
Zip code: 03841

Heliport Operations

Heliport use: Private use. Permission required prior to landing
Activation date: 03/2004
Control tower: no
ARTCC: BOSTON CENTER
FSS: BANGOR FLIGHT SERVICE STATION
Attendance: UNATNDD
Wind indicator: yes
Segmented circle: no

Heliport Communications

WX ASOS at LWM (10 nm S): PHONE 978-687-8017
WX ASOS at MHT (12 nm W): 119.55 (603-621-1766)
WX AWOS-3PT at ASH (16 nm W): 125.1 (603-578-0473)

Nearby radio navigation aids

VOR radial/distance  VOR name  Freq  Var
MHTr103/8.4MANCHESTER VOR/DME114.4015W
LWMr350/8.8LAWRENCE VOR/DME112.5015W
PSMr246/19.8PEASE VOR/DME116.5016W
CONr155/27.0CONCORD VOR/DME112.9015W
BOSr001/32.1BOSTON VOR/DME112.7016W

 
NDB name  Hdg/Dist  Freq  Var  ID
HAGET018/13.840215WLW .-.. .--
SHAKER HILL016/25.125116WSKR ... -.- .-.
ROLLINS233/25.926016WESG . ... --.

Heliport Services

Runway Information

Helipad H1

Dimensions: 45 x 12 ft. / 14 x 4 m
Surface: turf
Traffic pattern: leftleft

Heliport Ownership and Management from official FAA records

Ownership: Privately-owned
Owner: WILLIAM CLARK
9 EMERSON AVE
HAMPSTEAD, NH 03841
Phone 603-329-5417
Manager: WILLIAM CLARK
9 EMERSON AVE
HAMPSTEAD, NH 03841
Phone 603-329-5417

Heliport Operational Statistics

Aircraft based on the field: 1
Helicopters: 1
    

Additional Remarks

OWNER DESIRES ARPT NOT BE CHARTED.
FOR CD CTC BOSTON APCH AT 603-594-5551.

Instrument Procedures

There are no published instrument procedures at 10NH.

Some nearby airports with instrument procedures:

KLWM - Lawrence Municipal Airport (10 nm S)
KMHT - Manchester Airport (12 nm W)
KASH - Boire Field Airport (16 nm W)
KPSM - Portsmouth International Airport at Pease (20 nm NE)
KBVY - Beverly Regional Airport (21 nm SE)
 
Loc | Ops | Rwys | IFR | FBO | Links
Com | Nav | Svcs | Stats | Notes
Area around 10NH (Clark Heliport)
 
Road maps at: MapQuest Bing Google
 
Aerial photo
No photo
 
Sectional chart

 
Airport distance calculator
Flying to Clark Heliport? Find the distance to fly.

From to 10NH

Sunrise and sunset
Times for 17-Oct-2019
 Local
(UTC-4)
 Zulu
(UTC)
Morning civil twilight06:3310:33
Sunrise07:0111:01
Sunset17:5921:59
Evening civil twilight18:2722:27

Current date and time
Zulu (UTC)  17-Oct-2019 09:12:08
Local (UTC-4)  17-Oct-2019 05:12:08
 
METAR
KLWM 
10nm S 
170854Z AUTO 10012G23KT 7SM -RA OVC007 16/14 A2881 RMK AO2 PK WND 10030/0800 CIG 006V010 SLP756 P0000 60142 T01610144 56113
KMHT 
12nm W 
170853Z 08014G21KT 2SM -RA BR BKN008 OVC014 15/14 A2878 RMK AO2 PK WND 08037/0803 SFC VIS 4 SLP757 P0003 60065 T01500139 56124
KASH 
16nm SW 
170856Z AUTO 13013G17KT 10SM BKN009 OVC013 16/16 A2878 RMK AO2 PK WND 07028/0804 RAE45 CIG 007V013 SLP749 6//// T01610161 56122 PNO $
KPSM 
20nm NE 
170856Z 09023G40KT 1 1/4SM -RA BR FEW002 BKN006 OVC011 15/15 A2885 RMK AO2A PK WND 08040/46 PRESFR SLP772 P0009 60121 T01530147 57119
TAF
KMHT 
12nm W 
170520Z 1706/1806 08019G29KT 4SM +RA BR OVC008 WS020/09051KT FM170900 10022G40KT 2SM +RA BR OVC008 FM171200 20014G22KT 5SM -RA BR OVC026 FM172300 28012G20KT P6SM BKN035
KPSM 
20nm NE 
170520Z 1706/1806 08022G45KT 2SM -RA BR OVC006 WS020/10054KT FM171200 20018G35KT 6SM SHRA BR OVC015 FM171900 22012G20KT P6SM OVC015 FM172200 25010G17KT P6SM BKN045
NOTAMs
Click for the latest NOTAMs
NOTAMs are issued by the DoD/FAA and will open in a separate window not controlled by AirNav.

 

 
 

Would you like to see your business listed on this page?

 If your business provides an interesting product or service to pilots, flight crews, aircraft, or users of the Clark Heliport, you should consider listing it here.  To start the listing process, click on the button below
 
Add a business
 

Other Pages about Clark Heliport

Update a link
 
Copyright © AirNav, LLC. All rights reserved. Privacy Policy  Contact